createdAt,value
2022-12-08T00:02:13.260Z,99894.28
2022-12-08T00:07:15.289Z,99890.59
2022-12-08T00:12:17.190Z,99884.56
2022-12-08T00:17:18.982Z,99880.56
2022-12-08T00:22:20.946Z,99871.28
2022-12-08T00:27:22.988Z,99859.25
2022-12-08T00:32:24.919Z,99866.00
2022-12-08T00:37:26.766Z,99864.03
2022-12-08T00:42:28.615Z,99858.34
2022-12-08T00:47:30.537Z,99854.72
2022-12-08T00:52:32.532Z,99843.44
2022-12-08T00:57:34.443Z,99845.97
2022-12-08T01:02:36.270Z,99837.38
2022-12-08T01:07:38.150Z,99845.06
2022-12-08T01:12:40.011Z,99844.63
2022-12-08T01:17:41.855Z,99847.09
2022-12-08T01:22:43.676Z,99848.66
2022-12-08T01:27:45.488Z,99851.50
2022-12-08T01:32:47.440Z,99852.50
2022-12-08T01:37:50.437Z,99849.75
2022-12-08T01:42:52.301Z,99846.38
2022-12-08T01:47:56.928Z,99854.28
2022-12-08T01:53:04.287Z,99840.31
2022-12-08T01:58:11.498Z,99846.81
2022-12-08T02:03:18.763Z,99834.97
2022-12-08T02:08:20.839Z,99830.66
2022-12-08T02:13:23.111Z,99841.56
2022-12-08T02:18:53.751Z,99847.63
2022-12-08T02:24:17.988Z,99821.84
2022-12-08T02:29:48.954Z,99818.63
2022-12-08T02:35:40.120Z,99819.50
2022-12-08T02:41:04.451Z,99807.09
2022-12-08T02:46:09.016Z,99803.72
2022-12-08T02:51:10.964Z,99806.63
2022-12-08T02:56:27.623Z,99805.50
2022-12-08T03:01:41.575Z,99800.94
2022-12-08T03:07:32.904Z,99790.72
2022-12-08T03:12:49.644Z,99783.28
2022-12-08T03:17:54.992Z,99789.41
2022-12-08T03:22:57.533Z,99774.22
2022-12-08T03:27:59.672Z,99769.53
2022-12-08T03:33:16.147Z,99770.38
2022-12-08T03:38:18.214Z,99762.16
2022-12-08T03:43:20.142Z,99768.16
2022-12-08T03:48:22.038Z,99763.69
2022-12-08T03:53:23.885Z,99757.13
2022-12-08T03:58:25.701Z,99754.50
2022-12-08T04:03:27.624Z,99751.59
2022-12-08T04:08:29.651Z,99747.94
2022-12-08T04:13:31.649Z,99743.84
2022-12-08T04:18:34.034Z,99735.16
2022-12-08T04:23:35.665Z,99745.31
2022-12-08T04:28:37.812Z,99746.28
2022-12-08T04:33:39.804Z,99746.72
2022-12-08T04:38:41.638Z,99735.47
2022-12-08T04:43:43.501Z,99751.53
2022-12-08T04:48:45.324Z,99751.16
2022-12-08T04:53:47.493Z,99744.03
2022-12-08T04:58:49.343Z,99741.81
2022-12-08T05:03:51.216Z,99743.38
2022-12-08T05:08:53.064Z,99731.03
2022-12-08T05:13:54.862Z,99744.25
2022-12-08T05:18:56.655Z,99726.28
2022-12-08T05:23:58.458Z,99727.16
2022-12-08T05:29:00.282Z,99734.84
2022-12-08T05:34:03.331Z,99725.53
2022-12-08T05:39:05.521Z,99733.06
2022-12-08T05:44:07.370Z,99729.13
2022-12-08T05:49:09.277Z,99727.22
2022-12-08T05:54:11.133Z,99732.47
2022-12-08T05:59:12.989Z,99734.22
2022-12-08T06:04:14.814Z,99725.31
2022-12-08T06:09:16.601Z,99744.94
2022-12-08T06:14:18.469Z,99725.88
2022-12-08T06:19:20.248Z,99719.81
2022-12-08T06:24:22.168Z,99725.31
2022-12-08T06:29:23.975Z,99714.47
2022-12-08T06:34:25.786Z,99727.25
2022-12-08T06:39:27.638Z,99721.34
2022-12-08T06:44:29.501Z,99716.38
2022-12-08T06:49:31.308Z,99716.50
2022-12-08T06:54:33.058Z,99736.63
2022-12-08T06:59:34.946Z,99725.66
2022-12-08T07:04:36.882Z,99726.47
2022-12-08T07:09:38.787Z,99718.31
2022-12-08T07:14:40.609Z,99716.22
2022-12-08T07:19:42.467Z,99721.22
2022-12-08T07:24:44.241Z,99724.03
2022-12-08T07:29:45.979Z,99712.22
2022-12-08T07:34:47.845Z,99715.47
2022-12-08T07:39:49.651Z,99716.50
2022-12-08T07:44:51.421Z,99714.34
2022-12-08T07:49:53.267Z,99700.50
2022-12-08T07:54:55.054Z,99693.66
2022-12-08T07:59:56.830Z,99699.34
2022-12-08T08:04:58.720Z,99695.56
2022-12-08T08:10:00.571Z,99688.72
2022-12-08T08:15:02.901Z,99695.84
2022-12-08T08:20:06.703Z,99687.09
2022-12-08T08:25:09.171Z,99681.16
2022-12-08T08:30:18.135Z,99685.13
2022-12-08T08:35:22.048Z,99681.63
2022-12-08T08:40:24.008Z,99686.53
2022-12-08T08:45:25.795Z,99678.53
2022-12-08T08:50:30.472Z,99684.22
2022-12-08T08:55:34.764Z,99680.41
2022-12-08T09:00:36.619Z,99674.13
2022-12-08T09:05:39.116Z,99685.72
2022-12-08T09:10:41.018Z,99684.69
2022-12-08T09:15:42.964Z,99681.84
2022-12-08T09:20:44.847Z,99684.38
2022-12-08T09:25:46.772Z,99675.41
2022-12-08T09:30:48.781Z,99679.00
2022-12-08T09:35:50.781Z,99659.56
2022-12-08T09:40:53.262Z,99661.06
2022-12-08T09:45:55.016Z,99652.34
2022-12-08T09:50:57.449Z,99664.25
2022-12-08T09:55:59.486Z,99658.56
2022-12-08T10:01:01.353Z,99658.09
2022-12-08T10:06:27.787Z,99666.25
2022-12-08T10:11:46.845Z,99651.84
2022-12-08T10:16:49.835Z,99652.69
2022-12-08T10:21:51.788Z,99659.19
2022-12-08T10:26:54.122Z,99662.19
2022-12-08T10:31:59.255Z,99658.50
2022-12-08T10:37:01.095Z,99657.84
2022-12-08T10:42:06.663Z,99646.56
2022-12-08T10:47:12.577Z,99654.63
2022-12-08T10:52:24.031Z,99651.25
2022-12-08T10:57:25.877Z,99654.88
2022-12-08T11:02:27.823Z,99658.56
2022-12-08T11:07:29.761Z,99660.09
2022-12-08T11:12:31.562Z,99641.72
2022-12-08T11:17:37.349Z,99646.72
2022-12-08T11:22:43.295Z,99651.47
2022-12-08T11:27:46.677Z,99643.69
2022-12-08T11:32:57.350Z,99632.25
2022-12-08T11:38:20.522Z,99638.94
2022-12-08T11:43:28.891Z,99645.84
2022-12-08T11:48:33.406Z,99641.16
2022-12-08T11:53:58.801Z,99656.53
2022-12-08T11:59:20.718Z,99646.69
2022-12-08T12:04:41.198Z,99653.03
2022-12-08T12:09:57.982Z,99656.47
2022-12-08T12:15:37.977Z,99656.78
2022-12-08T12:20:48.464Z,99650.94
2022-12-08T12:25:59.820Z,99658.09
2022-12-08T12:31:03.450Z,99651.50
2022-12-08T12:36:06.846Z,99658.97
2022-12-08T12:41:08.664Z,99653.84
2022-12-08T12:46:25.662Z,99668.97
2022-12-08T12:51:56.981Z,99668.94
2022-12-08T12:57:04.775Z,99682.84
2022-12-08T13:02:18.103Z,99687.06
2022-12-08T13:07:25.092Z,99690.44
2022-12-08T13:12:26.898Z,99678.53
2022-12-08T13:17:33.492Z,99678.53
2022-12-08T13:22:53.577Z,99685.91
2022-12-08T13:27:56.720Z,99680.84
2022-12-08T13:38:21.472Z,99674.84
2022-12-08T13:43:45.047Z,99681.38
2022-12-08T13:50:42.613Z,99677.00
2022-12-08T14:00:15.098Z,99677.78
2022-12-08T14:05:19.512Z,99678.88
2022-12-08T14:10:37.172Z,99689.22
2022-12-08T14:15:39.810Z,99691.53
2022-12-08T14:21:12.637Z,99683.47
2022-12-08T14:26:07.868Z,99695.22
2022-12-08T14:31:09.808Z,99708.09
2022-12-08T14:36:19.231Z,99699.41
2022-12-08T14:41:25.519Z,99703.25
2022-12-08T14:46:27.681Z,99712.19
2022-12-08T14:51:31.207Z,99714.06
2022-12-08T14:56:47.797Z,99724.59
2022-12-08T15:01:51.158Z,99727.22
2022-12-08T15:06:59.898Z,99729.00
2022-12-08T15:12:13.078Z,99745.94
2022-12-08T15:17:47.476Z,99747.56
2022-12-08T15:22:49.360Z,99761.59
2022-12-08T15:27:52.132Z,99766.31
2022-12-08T15:32:54.088Z,99762.56
2022-12-08T15:37:55.956Z,99778.13
2022-12-08T15:42:58.028Z,99765.28
2022-12-08T15:47:59.955Z,99765.94
2022-12-08T15:53:01.962Z,99767.84
2022-12-08T15:58:51.934Z,99772.94
2022-12-08T16:09:06.129Z,99768.13
2022-12-08T16:15:01.936Z,99770.81
2022-12-08T16:19:37.170Z,99769.88
2022-12-08T16:24:39.397Z,99772.13
2022-12-08T16:29:41.225Z,99773.25
2022-12-08T16:34:43.649Z,99766.69
2022-12-08T16:39:45.978Z,99781.25
2022-12-08T16:44:48.266Z,99768.75
2022-12-08T16:49:50.189Z,99768.09
2022-12-08T16:54:52.198Z,99779.63
2022-12-08T16:59:54.093Z,99788.97
2022-12-08T17:04:56.206Z,99770.75
2022-12-08T17:09:58.777Z,99763.72
2022-12-08T17:15:03.045Z,99756.34
2022-12-08T17:20:12.161Z,99750.28
2022-12-08T17:25:15.173Z,99757.25
2022-12-08T17:30:17.193Z,99755.13
2022-12-08T17:35:19.118Z,99764.31
2022-12-08T17:40:21.314Z,99759.13
2022-12-08T17:45:23.207Z,99751.47
2022-12-08T17:50:25.080Z,99761.69
2022-12-08T17:55:26.966Z,99761.59
2022-12-08T18:00:28.883Z,99776.28
2022-12-08T18:05:31.350Z,99771.97
2022-12-08T18:10:33.239Z,99770.31
2022-12-08T18:15:39.161Z,99784.91
2022-12-08T18:20:41.301Z,99783.78
2022-12-08T18:25:43.655Z,99777.09
2022-12-08T18:30:45.466Z,99784.28
2022-12-08T18:35:47.418Z,99785.13
2022-12-08T18:40:49.234Z,99795.34
2022-12-08T18:45:51.246Z,99786.00
2022-12-08T18:50:53.205Z,99787.47
2022-12-08T18:55:55.015Z,99794.13
2022-12-08T19:00:56.956Z,99792.84
2022-12-08T19:06:03.568Z,99784.81
2022-12-08T19:11:05.997Z,99789.34
2022-12-08T19:16:08.259Z,99782.25
2022-12-08T19:21:10.484Z,99795.41
2022-12-08T19:26:12.350Z,99804.00
2022-12-08T19:31:14.180Z,99804.25
2022-12-08T19:36:17.453Z,99806.41
2022-12-08T19:41:19.280Z,99799.91
2022-12-08T19:46:21.285Z,99801.78
2022-12-08T19:51:23.342Z,99816.47
2022-12-08T19:56:25.200Z,99822.28
2022-12-08T20:01:27.178Z,99822.28
2022-12-08T20:06:29.167Z,99813.00
2022-12-08T20:11:31.014Z,99820.78
2022-12-08T20:16:38.919Z,99833.97
2022-12-08T20:21:40.859Z,99833.44
2022-12-08T20:26:42.795Z,99840.53
2022-12-08T20:31:44.931Z,99844.47
2022-12-08T20:36:58.691Z,99832.31
2022-12-08T20:42:00.613Z,99815.75
2022-12-08T20:47:02.705Z,99825.22
2022-12-08T20:52:04.845Z,99829.44
2022-12-08T20:57:06.964Z,99828.91
2022-12-08T21:02:10.683Z,99833.81
2022-12-08T21:07:12.708Z,99837.03
2022-12-08T21:12:14.786Z,99834.63
2022-12-08T21:17:16.705Z,99832.88
2022-12-08T21:22:19.024Z,99843.31
2022-12-08T21:27:21.027Z,99835.59
2022-12-08T21:32:28.625Z,99825.63
2022-12-08T21:37:32.267Z,99842.13
2022-12-08T21:42:34.607Z,99840.59
2022-12-08T21:47:36.631Z,99850.94
2022-12-08T21:52:42.712Z,99855.06
2022-12-08T21:57:44.772Z,99859.44
2022-12-08T22:02:47.061Z,99857.41
2022-12-08T22:07:49.123Z,99862.44
2022-12-08T22:12:51.367Z,99864.38
2022-12-08T22:17:53.410Z,99859.69
2022-12-08T22:22:55.306Z,99852.59
2022-12-08T22:27:57.167Z,99849.22
2022-12-08T22:32:58.938Z,99851.50
2022-12-08T22:38:01.058Z,99844.06
2022-12-08T22:43:02.925Z,99863.19
2022-12-08T22:48:05.197Z,99872.09
2022-12-08T22:53:07.487Z,99873.31
2022-12-08T22:58:10.330Z,99873.44
2022-12-08T23:03:12.345Z,99859.81
2022-12-08T23:08:15.283Z,99864.34
2022-12-08T23:13:17.383Z,99869.09
2022-12-08T23:18:19.634Z,99867.66
2022-12-08T23:23:21.710Z,99865.91
2022-12-08T23:28:23.819Z,99879.78
2022-12-08T23:33:25.958Z,99879.50
2022-12-08T23:38:27.890Z,99882.13
2022-12-08T23:43:29.970Z,99889.50
2022-12-08T23:48:31.980Z,99885.34
2022-12-08T23:53:34.051Z,99882.00
2022-12-08T23:58:36.156Z,99882.13
